Time;durP1;ratioP1;P1;durP2;ratioP2;P2;SDS_P1;SDS_P2;PMS_P1;PMS_P2;Temp;Humidity;BMP_temperature;BMP_pressure;BME280_temperature;BME280_humidity;BME280_pressure;Samples;Min_cycle;Max_cycle;Signal;HPM_P1;HPM_P2
2022/05/14 00:00:22;;;;;;;9.68;3.60;;;;;;;-141.50;100.00;63355.56;5083804;28;20092;-78
2022/05/14 00:02:49;;;;;;;9.73;3.30;;;;;;;-141.50;100.00;63355.56;5072123;28;20048;-79
2022/05/14 00:05:19;;;;;;;11.10;4.18;;;;;;;-141.50;100.00;63355.56;5085340;28;20044;-79
2022/05/14 00:07:47;;;;;;;7.03;3.65;;;;;;;-141.50;100.00;63355.56;5078938;28;20451;-79
2022/05/14 00:10:15;;;;;;;11.05;3.47;;;;;;;-141.50;100.00;63355.56;5075372;28;20052;-80
2022/05/14 00:15:26;;;;;;;7.65;3.67;;;;;;;-141.50;100.00;63355.56;5093733;28;20122;-78
2022/05/14 00:17:54;;;;;;;7.43;3.88;;;;;;;-141.50;100.00;63355.56;5083702;28;20044;-77
2022/05/14 00:20:23;;;;;;;7.07;3.70;;;;;;;-141.50;100.00;63355.56;5056927;28;20137;-78
2022/05/14 00:22:52;;;;;;;7.47;3.33;;;;;;;-141.50;100.00;63355.56;5076206;28;20052;-77
2022/05/14 00:25:20;;;;;;;6.72;3.47;;;;;;;-141.50;100.00;63355.56;5061901;28;20060;-78
2022/05/14 00:27:48;;;;;;;6.93;3.88;;;;;;;-141.50;100.00;63355.56;5095684;28;20048;-78
2022/05/14 00:30:17;;;;;;;7.13;3.90;;;;;;;-141.50;100.00;63355.56;5074229;28;20126;-81
2022/05/14 00:32:44;;;;;;;7.85;3.65;;;;;;;-141.50;100.00;63355.56;5070981;28;20116;-79
2022/05/14 00:35:11;;;;;;;7.35;3.55;;;;;;;-141.50;100.00;63355.56;5078626;28;20082;-78
2022/05/14 00:37:40;;;;;;;6.18;3.70;;;;;;;-141.50;100.00;63355.56;5095461;28;20055;-78
2022/05/14 00:40:15;;;;;;;4.97;3.17;;;;;;;-141.50;100.00;63355.56;5075855;28;20056;-79
2022/05/14 00:42:42;;;;;;;9.13;3.15;;;;;;;-141.50;100.00;63355.56;5075648;28;20120;-79
2022/05/14 00:45:11;;;;;;;13.30;3.85;;;;;;;-141.50;100.00;63355.56;5084048;28;20156;-79
2022/05/14 00:47:40;;;;;;;5.78;3.58;;;;;;;-141.50;100.00;63355.56;5055934;28;20060;-78
2022/05/14 00:50:26;;;;;;;8.77;4.25;;;;;;;-141.50;100.00;63355.56;5057859;28;20116;-79
2022/05/14 00:53:00;;;;;;;11.35;3.55;;;;;;;-141.50;100.00;63355.56;5080237;28;20105;-78
2022/05/14 00:55:27;;;;;;;7.35;3.78;;;;;;;-141.50;100.00;63355.56;5079266;28;20063;-77
2022/05/14 00:57:54;;;;;;;5.45;3.53;;;;;;;-141.50;100.00;63355.56;5105328;28;20080;-79
2022/05/14 01:00:23;;;;;;;7.22;4.05;;;;;;;-141.50;100.00;63355.56;5096600;28;20109;-79
2022/05/14 01:02:53;;;;;;;6.93;3.90;;;;;;;-141.50;100.00;63355.56;5066569;28;20057;-80
2022/05/14 01:05:21;;;;;;;7.13;3.30;;;;;;;-141.50;100.00;63355.56;5052966;28;20088;-78
2022/05/14 01:07:49;;;;;;;7.07;3.28;;;;;;;-141.50;100.00;63355.56;5052661;28;20056;-79
2022/05/14 01:10:18;;;;;;;8.32;3.75;;;;;;;-141.50;100.00;63355.56;5068361;28;20100;-79
2022/05/14 01:12:52;;;;;;;7.28;3.83;;;;;;;-141.50;100.00;63355.56;5093562;28;20127;-78
2022/05/14 01:15:24;;;;;;;7.20;3.53;;;;;;;-141.50;100.00;63355.56;5092268;28;20421;-78
2022/05/14 01:17:52;;;;;;;10.18;3.92;;;;;;;-141.50;100.00;63355.56;5059766;28;20084;-78
2022/05/14 01:20:19;;;;;;;7.78;3.60;;;;;;;-141.50;100.00;63355.56;5053756;28;20072;-78
2022/05/14 01:23:04;;;;;;;5.88;3.30;;;;;;;-141.50;100.00;63355.56;5071641;28;20363;-78
2022/05/14 01:28:42;;;;;;;5.50;3.60;;;;;;;-141.50;100.00;63355.56;4982317;28;20133;-78
2022/05/14 01:31:09;;;;;;;8.02;3.80;;;;;;;-141.50;100.00;63355.56;5043666;28;20056;-79
2022/05/14 01:33:36;;;;;;;4.85;3.40;;;;;;;-141.50;100.00;63355.56;5078007;28;20496;-78
2022/05/14 01:36:07;;;;;;;8.40;3.80;;;;;;;-141.50;100.00;63355.56;5080553;28;20056;-79
2022/05/14 01:38:35;;;;;;;5.63;3.13;;;;;;;-141.50;100.00;63355.56;5073858;28;20071;-79
2022/05/14 01:41:02;;;;;;;11.15;3.60;;;;;;;-141.50;100.00;63355.56;5073699;28;20625;-79
2022/05/14 01:43:29;;;;;;;5.28;3.15;;;;;;;-141.50;100.00;63355.56;5083226;28;20048;-79
2022/05/14 01:45:56;;;;;;;8.20;3.75;;;;;;;-141.50;100.00;63355.56;5076977;28;20055;-78
2022/05/14 01:48:25;;;;;;;5.88;4.10;;;;;;;-141.50;100.00;63355.56;5092348;28;20052;-78
2022/05/14 01:50:51;;;;;;;9.88;4.10;;;;;;;-141.50;100.00;63355.56;5100958;28;20048;-78
2022/05/14 01:53:18;;;;;;;8.95;3.33;;;;;;;-141.50;100.00;63355.56;5095312;28;20512;-78
2022/05/14 01:55:44;;;;;;;7.15;4.10;;;;;;;-141.50;100.00;63355.56;5089621;28;20048;-77
2022/05/14 02:00:56;;;;;;;7.97;2.88;;;;;;;-141.50;100.00;63355.56;5071793;28;20098;-79
2022/05/14 02:03:22;;;;;;;9.85;3.38;;;;;;;-141.50;100.00;63355.56;5055189;28;20057;-79
2022/05/14 02:05:49;;;;;;;8.00;3.50;;;;;;;-141.50;100.00;63355.56;5094466;28;20078;-79
2022/05/14 02:08:15;;;;;;;6.63;3.63;;;;;;;-141.50;100.00;63355.56;5095463;28;20131;-78
2022/05/14 02:10:42;;;;;;;6.65;3.60;;;;;;;-141.50;100.00;63355.56;5073461;28;20075;-77
2022/05/14 02:13:10;;;;;;;9.95;3.58;;;;;;;-141.50;100.00;63355.56;5086837;28;20032;-78
2022/05/14 02:15:38;;;;;;;6.43;3.50;;;;;;;-141.50;100.00;63355.56;5075277;28;20682;-79
2022/05/14 02:18:05;;;;;;;6.07;3.45;;;;;;;-141.50;100.00;63355.56;5076254;28;20509;-80
2022/05/14 02:20:31;;;;;;;6.75;3.65;;;;;;;-141.50;100.00;63355.56;5073249;28;20500;-79
2022/05/14 02:22:58;;;;;;;7.68;3.30;;;;;;;-141.50;100.00;63355.56;5080330;28;20044;-78
2022/05/14 02:25:25;;;;;;;7.75;3.55;;;;;;;-141.50;100.00;63355.56;5097936;28;20079;-80
2022/05/14 02:27:51;;;;;;;9.90;4.03;;;;;;;-141.50;100.00;63355.56;5112551;28;20159;-79
2022/05/14 02:30:18;;;;;;;7.60;4.50;;;;;;;-141.50;100.00;63355.56;5067449;28;20052;-79
2022/05/14 02:32:45;;;;;;;7.90;3.67;;;;;;;-141.50;100.00;63355.56;5093584;28;20795;-78
2022/05/14 02:35:11;;;;;;;7.75;4.00;;;;;;;-141.50;100.00;63355.56;5075363;28;20634;-79
2022/05/14 02:37:38;;;;;;;8.45;4.03;;;;;;;-141.50;100.00;63355.56;5091556;28;20028;-78
2022/05/14 02:40:05;;;;;;;7.78;3.72;;;;;;;-141.50;100.00;63355.56;5097092;28;20079;-78
2022/05/14 02:42:32;;;;;;;7.43;3.67;;;;;;;-141.50;100.00;63355.56;5069672;28;20059;-78
2022/05/14 02:44:59;;;;;;;6.10;3.88;;;;;;;-141.50;100.00;63355.56;5089553;28;20080;-78
2022/05/14 02:47:26;;;;;;;11.30;3.58;;;;;;;-141.50;100.00;63355.56;5091024;28;20401;-79
2022/05/14 02:49:52;;;;;;;4.82;3.03;;;;;;;-141.50;100.00;63355.56;5092578;28;20051;-77
2022/05/14 02:52:19;;;;;;;6.70;2.92;;;;;;;-141.50;100.00;63355.56;5098240;28;20060;-79
2022/05/14 02:54:45;;;;;;;5.07;2.88;;;;;;;-141.50;100.00;63355.56;5081127;28;20059;-78
2022/05/14 02:57:12;;;;;;;8.10;3.17;;;;;;;-141.50;100.00;63355.56;5087166;28;20095;-79
2022/05/14 02:59:38;;;;;;;6.20;3.15;;;;;;;-141.50;100.00;63355.56;5087271;28;20570;-79
2022/05/14 03:02:05;;;;;;;5.43;3.40;;;;;;;-141.50;100.00;63355.56;5071845;28;20125;-79
2022/05/14 03:04:37;;;;;;;4.72;2.90;;;;;;;-141.50;100.00;63355.56;5075211;28;20102;-78
2022/05/14 03:07:09;;;;;;;10.13;4.05;;;;;;;-141.50;100.00;63355.56;5092133;28;20056;-78
2022/05/14 03:09:38;;;;;;;6.07;3.20;;;;;;;-141.50;100.00;63355.56;5091511;28;20214;-79
2022/05/14 03:12:07;;;;;;;8.27;3.30;;;;;;;-141.50;100.00;63355.56;5086136;28;20056;-79
2022/05/14 03:14:33;;;;;;;6.45;3.47;;;;;;;-141.50;100.00;63355.56;5090964;28;20086;-78
2022/05/14 03:17:00;;;;;;;7.25;3.85;;;;;;;-141.50;100.00;63355.56;5067845;28;20072;-78
2022/05/14 03:19:27;;;;;;;7.47;3.25;;;;;;;-141.50;100.00;63355.56;5056342;28;20731;-79
2022/05/14 03:21:54;;;;;;;5.93;3.40;;;;;;;-141.50;100.00;63355.56;5061066;28;20134;-79
2022/05/14 03:24:20;;;;;;;6.20;3.88;;;;;;;-141.50;100.00;63355.56;5075656;28;20080;-78
2022/05/14 03:26:47;;;;;;;12.18;4.50;;;;;;;-141.50;100.00;63355.56;5074220;28;20519;-78
2022/05/14 03:29:13;;;;;;;9.98;4.30;;;;;;;-141.50;100.00;63355.56;5093144;28;20052;-79
2022/05/14 03:31:43;;;;;;;10.35;3.92;;;;;;;-141.50;100.00;63355.56;5096016;28;20133;-79
2022/05/14 03:34:11;;;;;;;6.88;3.55;;;;;;;-141.50;100.00;63355.56;5087200;28;20048;-78
2022/05/14 03:36:39;;;;;;;11.82;4.10;;;;;;;-141.50;100.00;63355.56;5089211;28;20340;-79
2022/05/14 03:39:06;;;;;;;7.13;4.00;;;;;;;-141.50;100.00;63355.56;5071607;28;20103;-79
2022/05/14 03:41:35;;;;;;;6.25;2.97;;;;;;;-141.50;100.00;63355.56;5075018;28;20090;-77
2022/05/14 03:44:02;;;;;;;9.23;3.53;;;;;;;-141.50;100.00;63355.56;5086403;28;20111;-79
2022/05/14 03:46:29;;;;;;;12.13;3.33;;;;;;;-141.50;100.00;63355.56;5057307;28;20064;-80
2022/05/14 03:48:55;;;;;;;8.10;3.20;;;;;;;-141.50;100.00;63355.56;5061316;28;20048;-79
2022/05/14 03:51:22;;;;;;;7.13;3.30;;;;;;;-141.50;100.00;63355.56;5054058;28;20079;-79
2022/05/14 03:53:49;;;;;;;13.82;3.72;;;;;;;-141.50;100.00;63355.56;5039186;28;20485;-80
2022/05/14 03:56:15;;;;;;;6.70;2.80;;;;;;;-141.50;100.00;63355.56;5092264;28;20060;-80
2022/05/14 03:58:42;;;;;;;8.55;3.53;;;;;;;-141.50;100.00;63355.56;5090692;28;20480;-79
2022/05/14 04:01:09;;;;;;;7.22;3.58;;;;;;;-141.50;100.00;63355.56;5070614;28;20049;-79
2022/05/14 04:03:36;;;;;;;11.10;3.35;;;;;;;-141.50;100.00;63355.56;5053618;28;20063;-79
2022/05/14 04:06:03;;;;;;;6.53;3.50;;;;;;;-141.50;100.00;63355.56;5060156;28;20027;-77
2022/05/14 04:08:30;;;;;;;6.35;3.28;;;;;;;-141.50;100.00;63355.56;5100545;28;20332;-78
2022/05/14 04:10:57;;;;;;;8.30;3.30;;;;;;;-141.50;100.00;63355.56;5087442;28;20622;-80
2022/05/14 04:13:24;;;;;;;9.00;3.70;;;;;;;-141.50;100.00;63355.56;5075169;28;20106;-79
2022/05/14 04:15:50;;;;;;;6.20;3.35;;;;;;;-141.50;100.00;63355.56;5086426;28;20060;-78
2022/05/14 04:18:20;;;;;;;10.63;3.80;;;;;;;-141.50;100.00;63355.56;5069160;28;20131;-78
2022/05/14 04:20:47;;;;;;;7.68;3.33;;;;;;;-141.50;100.00;63355.56;5069498;28;20084;-79
2022/05/14 04:23:13;;;;;;;6.53;3.53;;;;;;;-141.50;100.00;63355.56;5063747;28;20129;-79
2022/05/14 04:25:40;;;;;;;7.63;3.40;;;;;;;-141.50;100.00;63355.56;5091102;28;20736;-78
2022/05/14 04:28:06;;;;;;;5.78;3.20;;;;;;;-141.50;100.00;63355.56;5092981;28;20059;-79
2022/05/14 04:30:33;;;;;;;4.30;2.90;;;;;;;-141.50;100.00;63355.56;5092866;28;20080;-79
2022/05/14 04:32:59;;;;;;;5.15;3.10;;;;;;;-141.50;100.00;63355.56;5095282;28;20120;-79
2022/05/14 04:35:26;;;;;;;6.72;3.42;;;;;;;-141.50;100.00;63355.56;5062772;28;20132;-78
2022/05/14 04:37:52;;;;;;;7.10;3.30;;;;;;;-141.50;100.00;63355.56;5073602;28;20769;-79
2022/05/14 04:40:19;;;;;;;7.95;3.67;;;;;;;-141.50;100.00;63355.56;5064075;28;20056;-76
2022/05/14 04:42:45;;;;;;;7.43;3.80;;;;;;;-141.50;100.00;63355.56;5090322;28;20068;-77
2022/05/14 04:45:12;;;;;;;11.27;4.20;;;;;;;-141.50;100.00;63355.56;5055218;28;20068;-78
2022/05/14 04:47:41;;;;;;;11.00;4.18;;;;;;;-141.50;100.00;63355.56;5082685;28;20759;-78
2022/05/14 04:50:09;;;;;;;11.10;3.90;;;;;;;-141.50;100.00;63355.56;5093642;28;20410;-78
2022/05/14 04:52:36;;;;;;;8.02;3.80;;;;;;;-141.50;100.00;63355.56;5094911;28;20132;-79
2022/05/14 04:55:03;;;;;;;11.48;3.28;;;;;;;-141.50;100.00;63355.56;5089314;28;20063;-78
2022/05/14 04:57:30;;;;;;;9.15;2.80;;;;;;;-141.50;100.00;63355.56;5090515;28;20062;-77
2022/05/14 04:59:56;;;;;;;9.55;2.72;;;;;;;-141.50;100.00;63355.56;5070114;28;20119;-77
2022/05/14 05:05:08;;;;;;;8.13;2.50;;;;;;;-141.50;100.00;63355.56;5086618;28;20052;-77
2022/05/14 05:07:36;;;;;;;6.60;2.55;;;;;;;-141.50;100.00;63355.56;5069248;28;20333;-77
2022/05/14 05:10:03;;;;;;;8.00;2.67;;;;;;;-141.50;100.00;63355.56;5071336;28;20135;-77
2022/05/14 05:12:31;;;;;;;9.45;2.20;;;;;;;-141.50;100.00;63355.56;5079653;28;20076;-77
2022/05/14 05:14:57;;;;;;;8.20;2.65;;;;;;;-141.50;100.00;63355.56;5053184;28;20739;-77
2022/05/14 05:17:24;;;;;;;8.20;2.25;;;;;;;-141.50;100.00;63355.56;5081100;28;20079;-77
2022/05/14 05:19:50;;;;;;;10.43;2.10;;;;;;;-141.50;100.00;63355.56;5072535;28;20136;-76
2022/05/14 05:22:17;;;;;;;4.95;1.95;;;;;;;-141.50;100.00;63355.56;5091544;28;20154;-77
2022/05/14 05:24:44;;;;;;;9.32;1.90;;;;;;;-141.50;100.00;63355.56;5063588;28;20102;-79
2022/05/14 05:27:10;;;;;;;8.27;1.80;;;;;;;-141.50;100.00;63355.56;5072244;28;20099;-78
2022/05/14 05:29:37;;;;;;;5.75;2.10;;;;;;;-141.50;100.00;63355.56;5070511;28;20402;-77
2022/05/14 05:32:04;;;;;;;5.20;2.17;;;;;;;-141.50;100.00;63355.56;5077761;28;20082;-76
2022/05/14 05:34:31;;;;;;;10.35;1.83;;;;;;;-141.50;100.00;63355.56;5093318;28;20663;-76
2022/05/14 05:36:57;;;;;;;10.13;2.22;;;;;;;-141.50;100.00;63355.56;5091200;28;20139;-78
2022/05/14 05:39:24;;;;;;;8.10;1.90;;;;;;;-141.50;100.00;63355.56;5090554;28;20067;-77
2022/05/14 05:41:50;;;;;;;8.05;2.33;;;;;;;-141.50;100.00;63355.56;5090967;28;20131;-80
2022/05/14 05:44:17;;;;;;;8.93;1.95;;;;;;;-141.50;100.00;63355.56;5091532;28;20466;-78
2022/05/14 05:46:43;;;;;;;6.53;2.08;;;;;;;-141.50;100.00;63355.56;5072679;28;20099;-76
2022/05/14 05:49:10;;;;;;;9.15;2.42;;;;;;;-141.50;100.00;63355.56;5089785;28;20090;-78
2022/05/14 05:51:36;;;;;;;7.80;1.88;;;;;;;-141.50;100.00;63355.56;5088919;28;20163;-78
2022/05/14 05:56:56;;;;;;;5.78;1.95;;;;;;;-141.50;100.00;63355.56;5095824;28;20076;-77
2022/05/14 05:59:25;;;;;;;4.45;2.10;;;;;;;-141.50;100.00;63355.56;5079108;28;20303;-77
2022/05/14 06:01:52;;;;;;;7.32;2.15;;;;;;;-141.50;100.00;63355.56;5062955;28;20144;-76
2022/05/14 06:04:20;;;;;;;8.80;2.38;;;;;;;-141.50;100.00;63355.56;5104776;28;20098;-75
2022/05/14 06:06:50;;;;;;;9.50;2.05;;;;;;;-141.50;100.00;63355.56;5082578;28;20134;-78
2022/05/14 06:09:20;;;;;;;7.95;2.17;;;;;;;-141.50;100.00;63355.56;5098456;28;20070;-78
2022/05/14 06:11:47;;;;;;;10.05;2.10;;;;;;;-141.50;100.00;63355.56;5073029;28;20080;-78
2022/05/14 06:14:14;;;;;;;9.75;2.25;;;;;;;-141.50;100.00;63355.56;5091720;28;20052;-78
2022/05/14 06:16:42;;;;;;;8.98;2.28;;;;;;;-141.50;100.00;63355.56;5084379;28;20124;-78
2022/05/14 06:19:09;;;;;;;8.05;2.30;;;;;;;-141.50;100.00;63355.56;5094761;28;20111;-77
2022/05/14 06:21:37;;;;;;;8.55;2.15;;;;;;;-141.50;100.00;63355.56;5084402;28;20137;-76
2022/05/14 06:24:06;;;;;;;9.80;2.63;;;;;;;-141.50;100.00;63355.56;5085362;28;20074;-77
2022/05/14 06:26:33;;;;;;;7.65;2.28;;;;;;;-141.50;100.00;63355.56;5075253;28;20165;-77
2022/05/14 06:29:03;;;;;;;12.88;2.50;;;;;;;-141.50;100.00;63355.56;5078927;28;20045;-79
2022/05/14 06:31:33;;;;;;;5.80;2.10;;;;;;;-141.50;100.00;63355.56;5075185;28;20083;-77
2022/05/14 06:34:00;;;;;;;9.75;2.47;;;;;;;-141.50;100.00;63355.56;5077648;28;20052;-78
2022/05/14 06:36:26;;;;;;;6.20;2.08;;;;;;;-141.50;100.00;63355.56;5078147;28;20072;-78
2022/05/14 06:38:53;;;;;;;8.95;2.75;;;;;;;-141.50;100.00;63355.56;5076676;28;20167;-77
2022/05/14 06:41:20;;;;;;;8.40;2.50;;;;;;;-141.50;100.00;63355.56;5076463;28;20056;-78
2022/05/14 06:43:46;;;;;;;8.07;2.20;;;;;;;-141.50;100.00;63355.56;5078571;28;20075;-78
2022/05/14 06:46:13;;;;;;;10.40;2.60;;;;;;;-141.50;100.00;63355.56;5059401;28;20087;-79
2022/05/14 06:48:40;;;;;;;8.43;2.70;;;;;;;-141.50;100.00;63355.56;5082568;28;20546;-77
2022/05/14 06:51:17;;;;;;;13.68;2.85;;;;;;;-141.50;100.00;63355.56;5065864;28;20479;-77
2022/05/14 06:53:44;;;;;;;10.23;2.83;;;;;;;-141.50;100.00;63355.56;5062850;28;20102;-77
2022/05/14 06:56:13;;;;;;;14.48;2.70;;;;;;;-141.50;100.00;63355.56;5060103;28;20143;-76
2022/05/14 06:58:41;;;;;;;10.90;2.95;;;;;;;-141.50;100.00;63355.56;5082989;28;20072;-77
2022/05/14 07:01:09;;;;;;;6.53;2.75;;;;;;;-141.50;100.00;63355.56;5087656;28;20043;-77
2022/05/14 07:06:40;;;;;;;10.35;2.75;;;;;;;-141.50;100.00;63355.56;5076219;28;20092;-77
2022/05/14 07:09:23;;;;;;;9.05;2.78;;;;;;;-141.50;100.00;63355.56;5077566;28;20045;-78
2022/05/14 07:11:52;;;;;;;7.25;2.78;;;;;;;-141.50;100.00;63355.56;5077996;28;20449;-78
2022/05/14 07:14:19;;;;;;;7.05;2.95;;;;;;;-141.50;100.00;63355.56;5076129;28;20084;-79
2022/05/14 07:16:48;;;;;;;12.23;3.65;;;;;;;-141.50;100.00;63355.56;5057733;28;20117;-80
2022/05/14 07:19:15;;;;;;;9.75;3.33;;;;;;;-141.50;100.00;63355.56;5057482;28;20102;-78
2022/05/14 07:21:44;;;;;;;8.75;3.20;;;;;;;-141.50;100.00;63355.56;5078741;28;20047;-79
2022/05/14 07:24:24;;;;;;;12.48;3.30;;;;;;;-141.50;100.00;63355.56;5063131;28;20079;-78
2022/05/14 07:26:54;;;;;;;10.05;3.10;;;;;;;-141.50;100.00;63355.56;5077191;28;20080;-77
2022/05/14 07:29:23;;;;;;;11.15;3.05;;;;;;;-141.50;100.00;63355.56;5076547;28;20117;-77
2022/05/14 07:31:50;;;;;;;9.13;3.17;;;;;;;-141.50;100.00;63355.56;5080902;28;20090;-78
2022/05/14 07:34:17;;;;;;;15.98;3.67;;;;;;;-141.50;100.00;63355.56;5094385;28;20051;-76
2022/05/14 07:36:57;;;;;;;11.77;3.95;;;;;;;-141.50;100.00;63355.56;5093653;28;20142;-78
2022/05/14 07:39:26;;;;;;;;;;;;;;;-141.50;100.00;63355.56;5067646;28;20053;-77
2022/05/14 07:41:56;;;;;;;11.38;3.28;;;;;;;-141.50;100.00;63355.56;5076722;28;20463;-76
2022/05/14 07:44:29;;;;;;;10.85;4.30;;;;;;;-141.50;100.00;63355.56;5069931;28;20136;-78
2022/05/14 07:46:56;;;;;;;14.77;3.88;;;;;;;-141.50;100.00;63355.56;5090523;28;20048;-76
2022/05/14 07:49:24;;;;;;;11.60;4.40;;;;;;;-141.50;100.00;63355.56;5101213;28;20201;-78
2022/05/14 07:51:53;;;;;;;13.20;4.70;;;;;;;-141.50;100.00;63355.56;5091476;28;20052;-77
2022/05/14 07:54:21;;;;;;;13.07;4.88;;;;;;;-141.50;100.00;63355.56;5077676;28;20048;-78
2022/05/14 07:56:47;;;;;;;14.10;4.65;;;;;;;-141.50;100.00;63355.56;5051469;28;20056;-76
2022/05/14 07:59:15;;;;;;;9.95;3.85;;;;;;;-141.50;100.00;63355.56;5069882;28;20151;-79
2022/05/14 08:01:42;;;;;;;13.60;4.90;;;;;;;-141.50;100.00;63355.56;5077268;28;20522;-78
2022/05/14 08:04:09;;;;;;;14.18;4.30;;;;;;;-141.50;100.00;63355.56;5085348;28;20052;-77
2022/05/14 08:06:36;;;;;;;9.73;4.15;;;;;;;-141.50;100.00;63355.56;5076997;28;20135;-77
2022/05/14 08:09:03;;;;;;;15.60;4.30;;;;;;;-141.50;100.00;63355.56;5088059;28;20121;-79
2022/05/14 08:11:31;;;;;;;13.40;4.72;;;;;;;-141.50;100.00;63355.56;5083964;28;20860;-79
2022/05/14 08:13:58;;;;;;;16.83;4.40;;;;;;;-141.50;100.00;63355.56;5050064;28;20099;-80
2022/05/14 08:16:26;;;;;;;15.25;4.55;;;;;;;-141.50;100.00;63355.56;5070821;28;20059;-79
2022/05/14 08:18:52;;;;;;;12.32;4.63;;;;;;;-141.50;100.00;63355.56;5047654;28;20056;-79
2022/05/14 08:26:51;;;;;;;16.58;5.30;;;;;;;-141.50;100.00;63355.56;5084664;28;20099;-78
2022/05/14 08:29:19;;;;;;;14.75;4.63;;;;;;;-141.50;100.00;63355.56;5088541;28;20084;-81
2022/05/14 08:31:45;;;;;;;8.40;4.05;;;;;;;-141.50;100.00;63355.56;5049995;28;20116;-79
2022/05/14 08:34:12;;;;;;;11.57;5.40;;;;;;;-141.50;100.00;63355.56;5089774;28;20147;-79
2022/05/14 08:36:39;;;;;;;14.27;5.57;;;;;;;-141.50;100.00;63355.56;5089509;28;20140;-78
2022/05/14 08:39:06;;;;;;;16.77;5.55;;;;;;;-141.50;100.00;63355.56;5070272;28;20059;-80
2022/05/14 08:41:36;;;;;;;20.05;7.38;;;;;;;-141.50;100.00;63355.56;5072384;28;20056;-80
2022/05/14 08:44:08;;;;;;;17.48;7.38;;;;;;;-141.50;100.00;63355.56;5082257;28;20040;-81
2022/05/14 08:46:37;;;;;;;16.20;7.75;;;;;;;-141.50;100.00;63355.56;5073966;28;20064;-83
2022/05/14 08:49:15;;;;;;;19.83;7.88;;;;;;;-141.50;100.00;63355.56;5053748;28;20084;-76
2022/05/14 08:51:45;;;;;;;19.15;8.02;;;;;;;-141.50;100.00;63355.56;5082459;28;20105;-75
2022/05/14 08:54:12;;;;;;;12.98;7.18;;;;;;;-141.50;100.00;63355.56;5070093;28;20056;-74
2022/05/14 08:57:06;;;;;;;20.75;6.63;;;;;;;-141.50;100.00;63355.56;5090543;28;20088;-79
2022/05/14 08:59:56;;;;;;;14.32;6.25;;;;;;;-141.50;100.00;63355.56;5041764;28;20575;-81
2022/05/14 09:02:40;;;;;;;15.70;6.18;;;;;;;-141.50;100.00;63355.56;5091072;28;20075;-82
2022/05/14 09:05:19;;;;;;;11.88;6.00;;;;;;;-141.50;100.00;63355.56;5066359;28;20120;-82
2022/05/14 09:07:46;;;;;;;20.55;6.90;;;;;;;-141.50;100.00;63355.56;5091329;28;20062;-82
2022/05/14 09:10:36;;;;;;;14.45;6.60;;;;;;;-141.50;100.00;63355.56;5069245;28;20044;-79
2022/05/14 09:13:11;;;;;;;19.02;6.70;;;;;;;-141.50;100.00;63355.56;5053839;28;20135;-80
2022/05/14 09:15:46;;;;;;;18.23;7.28;;;;;;;-141.50;100.00;63355.56;5053271;28;20113;-81
2022/05/14 09:18:34;;;;;;;22.30;7.37;;;;;;;-141.50;100.00;63355.56;5084161;28;20468;-81
2022/05/14 09:21:02;;;;;;;18.27;8.30;;;;;;;-141.50;100.00;63355.56;5090419;28;20091;-82
2022/05/14 09:23:33;;;;;;;19.83;7.30;;;;;;;-141.50;100.00;63355.56;5071389;28;20044;-84
2022/05/14 09:26:32;;;;;;;17.08;6.97;;;;;;;-141.50;100.00;63355.56;5095471;28;20044;-80
2022/05/14 09:29:44;;;;;;;15.50;6.97;;;;;;;-141.50;100.00;63355.56;5020588;28;20826;-81
2022/05/14 09:32:16;;;;;;;15.18;6.20;;;;;;;-141.50;100.00;63355.56;5019858;28;20104;-82
2022/05/14 09:34:43;;;;;;;13.02;5.45;;;;;;;-141.50;100.00;63355.56;5032638;28;20127;-85
2022/05/14 09:37:27;;;;;;;15.00;5.00;;;;;;;-141.50;100.00;63355.56;5067248;28;20525;-82
2022/05/14 09:40:03;;;;;;;16.10;5.45;;;;;;;-141.50;100.00;63355.56;5111827;28;20146;-84
2022/05/14 09:42:37;;;;;;;27.10;6.70;;;;;;;-141.50;100.00;63355.56;5102728;28;20052;-83
2022/05/14 09:45:16;;;;;;;16.27;5.55;;;;;;;-141.50;100.00;63355.56;5079320;28;20055;-81
2022/05/14 09:47:43;;;;;;;12.32;5.07;;;;;;;-141.50;100.00;63355.56;5098737;28;20090;-82
2022/05/14 09:50:35;;;;;;;13.68;5.50;;;;;;;-141.50;100.00;63355.56;5081825;28;20056;-82
2022/05/14 09:53:05;;;;;;;13.23;5.47;;;;;;;-141.50;100.00;63355.56;5099438;28;20075;-81
2022/05/14 09:55:50;;;;;;;16.33;6.00;;;;;;;-141.50;100.00;63355.56;5096329;28;20523;-83
2022/05/14 09:58:22;;;;;;;11.07;5.18;;;;;;;-141.50;100.00;63355.56;5077315;28;20048;-78
2022/05/14 10:01:03;;;;;;;11.13;5.40;;;;;;;-141.50;100.00;63355.56;5072024;28;20581;-81
2022/05/14 10:03:55;;;;;;;15.77;4.93;;;;;;;-141.50;100.00;63355.56;5068634;28;20048;-83
2022/05/14 10:06:33;;;;;;;12.32;5.75;;;;;;;-141.50;100.00;63355.56;5066859;28;20048;-86
2022/05/14 10:09:18;;;;;;;11.25;4.93;;;;;;;-141.50;100.00;63355.56;5085268;28;20098;-80
2022/05/14 10:11:59;;;;;;;;;;;;;;;-141.50;100.00;63355.56;5091027;28;20145;-84
2022/05/14 10:14:34;;;;;;;13.13;5.35;;;;;;;-141.50;100.00;63355.56;5090303;28;20311;-80
2022/05/14 10:17:19;;;;;;;13.50;5.13;;;;;;;-141.50;100.00;63355.56;5083099;28;20088;-84
2022/05/14 10:19:48;;;;;;;12.45;4.70;;;;;;;-141.50;100.00;63355.56;5089479;28;20056;-84
2022/05/14 10:29:10;;;;;;;12.43;3.85;;;;;;;-141.50;100.00;63355.56;5075966;28;20126;-81
2022/05/14 10:31:54;;;;;;;16.38;3.13;;;;;;;-141.50;100.00;63355.56;5039443;28;20076;-81
2022/05/14 10:34:34;;;;;;;11.55;2.90;;;;;;;-141.50;100.00;63355.56;5063070;28;20076;-81
2022/05/14 10:37:08;;;;;;;9.05;3.65;;;;;;;-141.50;100.00;63355.56;5056502;28;20056;-84
2022/05/14 10:40:03;;;;;;;12.35;2.80;;;;;;;-141.50;100.00;63355.56;5084756;28;20078;-82
2022/05/14 10:42:38;;;;;;;8.32;2.60;;;;;;;-141.50;100.00;63355.56;5055705;28;20080;-81
2022/05/14 10:45:10;;;;;;;11.52;2.70;;;;;;;-141.50;100.00;63355.56;5074977;28;20508;-83
2022/05/14 10:47:45;;;;;;;11.23;2.50;;;;;;;-141.50;100.00;63355.56;5077465;28;20819;-81
2022/05/14 10:50:17;;;;;;;7.35;2.83;;;;;;;-141.50;100.00;63355.56;5079629;28;20118;-83
2022/05/14 10:52:50;;;;;;;8.02;2.53;;;;;;;-141.50;100.00;63355.56;5061209;28;20037;-81
2022/05/14 10:55:21;;;;;;;7.75;2.08;;;;;;;-141.50;100.00;63355.56;5088815;28;20048;-81
2022/05/14 10:58:01;;;;;;;7.97;2.88;;;;;;;-141.50;100.00;63355.56;5072734;28;20044;-81
2022/05/14 11:00:28;;;;;;;8.45;3.15;;;;;;;-141.50;100.00;63355.56;5090700;28;20262;-83
2022/05/14 11:03:19;;;;;;;8.98;3.10;;;;;;;-141.50;100.00;63355.56;5101981;28;20060;-83
2022/05/14 11:06:06;;;;;;;8.50;2.97;;;;;;;-141.50;100.00;63355.56;5091223;28;20098;-84
2022/05/14 11:08:43;;;;;;;10.45;2.50;;;;;;;-141.50;100.00;63355.56;5073000;28;20060;-84
2022/05/14 11:11:15;;;;;;;8.80;3.00;;;;;;;-141.50;100.00;63355.56;5075337;28;20091;-81
2022/05/14 11:13:55;;;;;;;9.00;2.72;;;;;;;-141.50;100.00;63355.56;5075174;28;20064;-84
2022/05/14 11:16:22;;;;;;;9.60;2.67;;;;;;;-141.50;100.00;63355.56;5058853;28;20048;-80
2022/05/14 11:18:52;;;;;;;9.50;2.80;;;;;;;-141.50;100.00;63355.56;5090866;28;20082;-79
2022/05/14 11:21:32;;;;;;;10.23;2.88;;;;;;;-141.50;100.00;63355.56;5072071;28;20101;-81
2022/05/14 11:24:01;;;;;;;6.85;2.67;;;;;;;-141.50;100.00;63355.56;5090476;28;20048;-80
2022/05/14 11:26:28;;;;;;;12.70;2.53;;;;;;;-141.50;100.00;63355.56;5093953;28;20415;-80
2022/05/14 11:29:28;;;;;;;13.00;2.90;;;;;;;-141.50;100.00;63355.56;5090828;28;20052;-79
2022/05/14 11:32:08;;;;;;;11.43;2.78;;;;;;;-141.50;100.00;63355.56;5069891;28;20174;-79
2022/05/14 11:34:36;;;;;;;12.60;2.53;;;;;;;-141.50;100.00;63355.56;5090417;28;20079;-78
2022/05/14 11:37:06;;;;;;;10.35;2.22;;;;;;;-141.50;100.00;63355.56;5090363;28;20052;-80
2022/05/14 11:39:36;;;;;;;9.23;2.47;;;;;;;-141.50;100.00;63355.56;5071583;28;20086;-79
2022/05/14 11:42:25;;;;;;;9.20;2.72;;;;;;;-141.50;100.00;63355.56;5071337;28;20509;-79
2022/05/14 11:44:56;;;;;;;11.30;2.63;;;;;;;-141.50;100.00;63355.56;5090798;28;20123;-79
2022/05/14 11:47:32;;;;;;;11.55;2.65;;;;;;;-141.50;100.00;63355.56;5072186;28;20601;-80
2022/05/14 11:50:02;;;;;;;9.60;2.60;;;;;;;-141.50;100.00;63355.56;5089358;28;20052;-81